Barberville, Florida
Current Conditions -  °F | °C
As of 3:53 PM on Monday 22 Dec 2014 (Local Time) from KDAB Reporting Station
Broken Clouds Broken Clouds  
Wind Chill: 25°   Ceiling: 25000
Heat Index: 26°   Visibility: 10mi
Dew Point: 19°   Wind: 8mph
Humidity: 71%   Direction: 170°S
Pressure: 29.9"   Gusts: NA
Location:  29.19°N, 81.42°W
Report Text: KDAB 222053Z 17007KT 10SM FEW035 SCT150 BKN250 25/19 A2990 RMK AO2 SLP125 T02500194 56023
Loading
Personal Weather Stations






























Interactive Weather Map New forecast layout! Learn more

10-Day Weather Forecast

Advertisements
Track Severe Weather on mobile